Time;durP1;ratioP1;P1;durP2;ratioP2;P2;SDS_P1;SDS_P2;PMS_P1;PMS_P2;Temp;Humidity;BMP_temperature;BMP_pressure;BME280_temperature;BME280_humidity;BME280_pressure;Samples;Min_cycle;Max_cycle;Signal;HPM_P1;HPM_P2
2023/10/19 00:01:58;;;;;;;18.70;12.95;;;10.90;99.90;;;;;;5059980;28;20017;-75
2023/10/19 00:04:25;;;;;;;22.80;14.57;;;10.80;99.90;;;;;;5055802;28;20029;-75
2023/10/19 00:06:53;;;;;;;21.95;15.10;;;10.80;99.90;;;;;;5049786;28;20430;-75
2023/10/19 00:09:20;;;;;;;22.65;13.45;;;10.80;99.90;;;;;;5054378;28;20024;-75
2023/10/19 00:11:46;;;;;;;23.83;14.55;;;10.80;99.90;;;;;;5050649;28;20028;-75
2023/10/19 00:14:16;;;;;;;61.33;18.27;;;10.90;99.90;;;;;;5047352;28;20558;-75
2023/10/19 00:16:54;;;;;;;23.05;14.18;;;10.80;99.90;;;;;;5051130;28;20033;-75
2023/10/19 00:19:20;;;;;;;24.80;14.80;;;10.70;99.90;;;;;;5050144;28;20021;-76
2023/10/19 00:21:55;;;;;;;21.27;13.50;;;10.80;99.90;;;;;;5051869;28;20039;-75
2023/10/19 00:24:23;;;;;;;19.92;14.40;;;10.80;99.90;;;;;;5052981;28;20021;-75
2023/10/19 00:26:52;;;;;;;22.73;14.10;;;10.90;99.90;;;;;;5054707;28;20506;-75
2023/10/19 00:29:39;;;;;;;21.10;14.35;;;10.90;99.90;;;;;;5051690;28;20078;-75
2023/10/19 00:32:06;;;;;;;22.30;14.32;;;10.90;99.90;;;;;;5056152;28;20028;-76
2023/10/19 00:34:33;;;;;;;21.50;13.57;;;10.80;99.90;;;;;;5048122;28;20029;-75
2023/10/19 00:37:07;;;;;;;23.48;15.75;;;10.90;99.90;;;;;;5054951;28;20048;-76
2023/10/19 00:39:42;;;;;;;21.83;13.90;;;10.80;99.90;;;;;;5056199;28;20031;-75
2023/10/19 00:42:08;;;;;;;20.25;13.63;;;10.80;99.90;;;;;;5043943;28;20438;-76
2023/10/19 00:44:48;;;;;;;24.02;15.25;;;10.90;99.90;;;;;;5048479;28;20036;-76
2023/10/19 00:47:18;;;;;;;19.70;14.02;;;11.00;99.90;;;;;;5057582;28;20029;-75
2023/10/19 00:49:46;;;;;;;24.52;14.68;;;10.90;99.90;;;;;;5061258;28;20123;-75
2023/10/19 00:52:18;;;;;;;23.77;16.27;;;10.90;99.90;;;;;;5053464;28;20044;-75
2023/10/19 00:57:32;;;;;;;24.88;16.42;;;10.80;99.90;;;;;;5047393;28;20029;-76
2023/10/19 01:00:11;;;;;;;24.08;15.57;;;10.90;99.90;;;;;;5051698;28;20025;-75
2023/10/19 01:02:43;;;;;;;23.15;14.88;;;10.90;99.90;;;;;;5052273;28;20028;-75
2023/10/19 01:05:13;;;;;;;22.50;14.60;;;10.80;99.90;;;;;;5053067;28;20116;-75
2023/10/19 01:07:40;;;;;;;22.58;15.73;;;10.90;99.90;;;;;;5049687;28;20021;-75
2023/10/19 01:10:08;;;;;;;23.92;15.57;;;10.90;99.90;;;;;;5052870;28;20033;-75
2023/10/19 01:12:40;;;;;;;26.10;15.82;;;11.00;99.90;;;;;;5059817;28;20025;-75
2023/10/19 01:15:17;;;;;;;23.73;16.33;;;11.00;99.90;;;;;;5055270;28;20478;-75
2023/10/19 01:17:56;;;;;;;25.42;16.60;;;10.90;99.90;;;;;;5056479;28;20569;-75
2023/10/19 01:28:16;;;;;;;24.98;16.08;;;10.90;99.90;;;;;;5046964;28;20032;-75
2023/10/19 01:30:44;;;;;;;21.90;15.38;;;10.90;99.90;;;;;;5049924;28;20075;-75
2023/10/19 01:33:15;;;;;;;26.25;14.85;;;10.90;99.90;;;;;;5048321;28;20049;-75
2023/10/19 01:38:30;;;;;;;24.27;16.23;;;11.00;99.90;;;;;;5054473;28;20052;-75
2023/10/19 01:40:59;;;;;;;24.83;14.80;;;10.90;99.90;;;;;;5053445;28;20478;-76
2023/10/19 01:43:30;;;;;;;24.83;14.23;;;11.00;99.90;;;;;;5049403;28;20108;-75
2023/10/19 01:45:57;;;;;;;22.58;14.70;;;11.00;99.90;;;;;;5056999;28;20036;-75
2023/10/19 01:48:33;;;;;;;25.55;16.15;;;11.00;99.90;;;;;;5048483;28;20064;-75
2023/10/19 01:51:04;;;;;;;22.35;14.77;;;11.00;99.90;;;;;;5055927;28;20029;-76
2023/10/19 01:53:39;;;;;;;26.20;15.75;;;11.00;99.90;;;;;;5051407;28;20037;-76
2023/10/19 01:56:09;;;;;;;22.17;14.23;;;11.00;99.90;;;;;;5061604;28;20024;-75
2023/10/19 01:58:39;;;;;;;21.77;15.02;;;11.00;99.90;;;;;;5052575;28;20032;-75
2023/10/19 02:01:49;;;;;;;27.90;16.58;;;11.00;99.90;;;;;;5060158;28;20028;-75
2023/10/19 02:04:05;;;;;;;25.27;14.93;;;10.90;99.90;;;;;;5049858;28;20029;-75
2023/10/19 02:09:18;;;;;;;23.73;15.18;;;10.90;99.90;;;;;;5053977;28;20071;-76
2023/10/19 02:11:48;;;;;;;24.92;15.10;;;11.00;99.90;;;;;;5055511;28;20027;-75
2023/10/19 02:14:21;;;;;;;22.05;13.93;;;11.00;99.90;;;;;;5052997;28;20419;-75
2023/10/19 02:16:52;;;;;;;23.55;14.90;;;11.00;99.90;;;;;;5054047;28;20033;-75
2023/10/19 02:19:19;;;;;;;24.70;15.48;;;10.90;99.90;;;;;;5053990;28;20035;-76
2023/10/19 02:21:49;;;;;;;22.90;14.93;;;11.00;99.90;;;;;;5052740;28;20047;-75
2023/10/19 02:24:14;;;;;;;21.17;14.18;;;11.00;99.90;;;;;;5061757;28;20024;-76
2023/10/19 02:26:42;;;;;;;21.70;15.00;;;11.00;99.90;;;;;;5050994;28;20492;-75
2023/10/19 02:29:09;;;;;;;22.38;14.85;;;11.00;99.90;;;;;;5058217;28;20044;-75
2023/10/19 02:31:39;;;;;;;21.90;14.27;;;11.00;99.90;;;;;;5051960;28;20035;-75
2023/10/19 02:34:07;;;;;;;20.50;14.50;;;11.00;99.90;;;;;;5055161;28;20037;-76
2023/10/19 02:36:33;;;;;;;23.33;16.33;;;11.00;99.90;;;;;;5059859;28;20025;-75
2023/10/19 02:39:07;;;;;;;24.13;14.50;;;11.10;99.90;;;;;;5060354;28;20029;-75
2023/10/19 02:41:37;;;;;;;24.20;15.63;;;11.00;99.90;;;;;;5053280;28;20061;-76
2023/10/19 02:46:31;;;;;;;20.38;13.25;;;11.10;99.90;;;;;;5053824;28;20049;-75
2023/10/19 02:49:03;;;;;;;22.13;13.70;;;11.00;99.90;;;;;;5048802;28;20033;-75
2023/10/19 02:51:30;;;;;;;25.00;14.93;;;11.00;99.90;;;;;;5054238;28;20033;-76
2023/10/19 02:53:59;;;;;;;19.17;13.80;;;11.00;99.90;;;;;;5055991;28;20056;-76
2023/10/19 02:56:26;;;;;;;21.10;15.20;;;10.90;99.90;;;;;;5051549;28;20021;-77
2023/10/19 02:58:51;;;;;;;22.17;14.63;;;11.00;99.90;;;;;;5053786;28;20029;-76
2023/10/19 03:01:22;;;;;;;20.88;15.07;;;11.00;99.90;;;;;;5057475;28;20031;-76
2023/10/19 03:03:50;;;;;;;21.42;14.48;;;11.00;99.90;;;;;;5052954;28;20039;-76
2023/10/19 03:06:20;;;;;;;24.30;14.50;;;11.10;99.90;;;;;;5053137;28;20039;-76
2023/10/19 03:08:47;;;;;;;22.33;14.43;;;11.10;99.90;;;;;;5048431;28;20502;-76
2023/10/19 03:11:14;;;;;;;17.88;13.02;;;11.00;99.90;;;;;;5049427;28;20378;-76
2023/10/19 03:13:41;;;;;;;22.38;14.88;;;10.90;99.90;;;;;;5045165;28;20044;-77
2023/10/19 03:16:07;;;;;;;19.60;14.07;;;11.00;99.90;;;;;;5051088;28;20059;-76
2023/10/19 03:18:34;;;;;;;22.00;14.10;;;11.00;99.90;;;;;;5044653;28;20021;-76
2023/10/19 03:21:04;;;;;;;24.23;14.60;;;11.10;99.90;;;;;;5042124;28;20087;-77
2023/10/19 03:23:34;;;;;;;24.55;13.88;;;11.10;99.90;;;;;;5048202;28;20437;-77
2023/10/19 03:29:13;;;;;;;26.23;14.15;;;11.10;99.90;;;;;;5039941;28;20570;-76
2023/10/19 03:31:43;;;;;;;19.13;13.50;;;11.10;99.90;;;;;;5039339;28;20167;-77
2023/10/19 03:34:12;;;;;;;23.02;14.75;;;11.10;99.90;;;;;;5045109;28;26174;-76
2023/10/19 03:36:38;;;;;;;22.73;15.25;;;11.10;99.90;;;;;;5058527;28;20028;-77
2023/10/19 03:39:14;;;;;;;21.35;14.27;;;11.00;99.90;;;;;;5046244;28;20033;-77
2023/10/19 03:41:44;;;;;;;20.23;14.70;;;10.90;99.90;;;;;;5048095;28;20032;-77
2023/10/19 03:44:23;;;;;;;21.33;13.75;;;10.90;99.90;;;;;;5044749;28;20021;-76
2023/10/19 03:46:53;;;;;;;22.38;13.68;;;10.90;99.90;;;;;;5043594;28;20303;-76
2023/10/19 03:49:22;;;;;;;20.58;13.98;;;10.90;99.90;;;;;;5057306;28;20047;-77
2023/10/19 03:51:58;;;;;;;23.67;15.20;;;10.90;99.90;;;;;;5050007;28;20067;-77
2023/10/19 03:54:27;;;;;;;22.27;15.68;;;11.00;99.90;;;;;;5047833;28;20628;-77
2023/10/19 03:56:55;;;;;;;21.20;14.38;;;11.00;99.90;;;;;;5050147;28;20417;-76
2023/10/19 03:59:21;;;;;;;22.10;14.30;;;11.00;99.90;;;;;;5053529;28;20079;-77
2023/10/19 04:01:47;;;;;;;20.77;14.43;;;11.00;99.90;;;;;;5045054;28;20054;-77
2023/10/19 04:04:13;;;;;;;21.25;14.20;;;11.00;99.90;;;;;;5045468;28;20033;-76
2023/10/19 04:06:58;;;;;;;19.17;12.82;;;11.00;99.90;;;;;;5042172;28;20032;-76
2023/10/19 04:09:28;;;;;;;22.95;13.90;;;11.00;99.90;;;;;;5044668;28;20032;-77
2023/10/19 04:11:56;;;;;;;23.48;14.23;;;11.00;99.90;;;;;;5051938;28;20032;-76
2023/10/19 04:14:21;;;;;;;20.85;14.00;;;11.00;99.90;;;;;;5050563;28;20412;-76
2023/10/19 04:16:48;;;;;;;27.25;15.98;;;11.00;99.90;;;;;;5050316;28;20035;-76
2023/10/19 04:19:15;;;;;;;24.38;13.68;;;11.00;99.90;;;;;;5045373;28;20470;-76
2023/10/19 04:21:46;;;;;;;20.95;13.40;;;11.00;99.90;;;;;;5040542;28;20020;-76
2023/10/19 04:24:14;;;;;;;23.23;14.93;;;11.00;99.90;;;;;;5044640;28;20029;-76
2023/10/19 04:26:40;;;;;;;22.02;14.40;;;11.00;99.90;;;;;;5048866;28;20036;-76
2023/10/19 04:29:10;;;;;;;21.45;13.15;;;11.00;99.90;;;;;;5057285;28;20051;-77
2023/10/19 04:31:49;;;;;;;21.95;13.60;;;11.10;99.90;;;;;;5046760;28;20021;-76
2023/10/19 04:34:16;;;;;;;21.73;14.18;;;11.10;99.90;;;;;;5041672;28;20418;-76
2023/10/19 04:36:42;;;;;;;21.80;14.50;;;11.00;99.90;;;;;;5045549;28;20040;-76
2023/10/19 04:39:13;;;;;;;22.80;15.10;;;11.10;99.90;;;;;;5047433;28;20557;-77
2023/10/19 04:41:44;;;;;;;20.70;14.02;;;11.10;99.90;;;;;;5041491;28;20112;-76
2023/10/19 04:44:09;;;;;;;24.58;15.75;;;11.20;99.90;;;;;;5043001;28;20108;-76
2023/10/19 04:46:36;;;;;;;24.08;14.77;;;11.20;99.90;;;;;;5045704;28;20131;-76
2023/10/19 04:49:03;;;;;;;27.27;16.40;;;11.20;99.90;;;;;;5050380;28;20074;-76
2023/10/19 04:51:29;;;;;;;23.63;14.63;;;11.10;99.90;;;;;;5041655;28;20131;-77
2023/10/19 04:53:55;;;;;;;24.10;14.75;;;11.10;99.90;;;;;;5042013;28;20140;-76
2023/10/19 04:56:21;;;;;;;23.95;15.38;;;11.10;99.90;;;;;;5049202;28;20536;-76
2023/10/19 04:58:47;;;;;;;24.95;15.13;;;11.00;99.90;;;;;;5048717;28;20075;-75
2023/10/19 05:01:14;;;;;;;23.88;16.02;;;11.00;99.90;;;;;;5045926;28;20024;-75
2023/10/19 05:03:44;;;;;;;24.05;15.13;;;11.00;99.90;;;;;;5045160;28;20118;-76
2023/10/19 05:06:09;;;;;;;22.10;13.57;;;11.00;99.90;;;;;;5042910;28;20111;-76
2023/10/19 05:08:36;;;;;;;22.60;14.55;;;10.90;99.90;;;;;;5041145;28;20039;-75
2023/10/19 05:11:02;;;;;;;23.13;14.77;;;10.90;99.90;;;;;;5044485;28;20029;-77
2023/10/19 05:13:30;;;;;;;22.02;14.88;;;10.90;99.90;;;;;;5044500;28;20065;-76
2023/10/19 05:15:56;;;;;;;23.70;14.70;;;11.00;99.90;;;;;;5041986;28;20032;-76
2023/10/19 05:18:22;;;;;;;20.95;14.73;;;11.00;99.90;;;;;;5047687;28;20031;-75
2023/10/19 05:20:50;;;;;;;22.77;14.13;;;10.90;99.90;;;;;;5051287;28;20802;-76
2023/10/19 05:23:16;;;;;;;23.27;15.23;;;11.00;99.90;;;;;;5041413;28;20029;-76
2023/10/19 05:25:42;;;;;;;23.88;14.45;;;11.00;99.90;;;;;;5044647;28;20052;-74
2023/10/19 05:28:08;;;;;;;25.25;15.80;;;10.90;99.90;;;;;;5048004;28;20135;-75
2023/10/19 05:30:35;;;;;;;22.80;15.50;;;11.00;99.90;;;;;;5042534;28;20111;-75
2023/10/19 05:33:04;;;;;;;24.13;14.88;;;11.10;99.90;;;;;;5049191;28;20102;-76
2023/10/19 05:35:31;;;;;;;24.40;16.73;;;11.10;99.90;;;;;;5046128;28;20371;-75
2023/10/19 05:37:57;;;;;;;24.15;15.60;;;11.00;99.90;;;;;;5044619;28;20029;-75
2023/10/19 05:40:29;;;;;;;24.27;15.20;;;11.10;99.90;;;;;;5045149;28;20457;-75
2023/10/19 05:42:57;;;;;;;23.00;15.90;;;11.10;99.90;;;;;;5040437;28;20561;-75
2023/10/19 05:45:24;;;;;;;26.27;16.45;;;11.20;99.90;;;;;;5048889;28;20047;-75
2023/10/19 05:47:50;;;;;;;25.40;16.15;;;11.10;99.90;;;;;;5045144;28;20021;-75
2023/10/19 05:50:16;;;;;;;26.95;17.40;;;11.00;99.90;;;;;;5048959;28;20028;-75
2023/10/19 05:52:43;;;;;;;24.08;15.50;;;11.00;99.90;;;;;;5050237;28;20040;-75
2023/10/19 05:55:10;;;;;;;28.60;16.50;;;11.00;99.90;;;;;;5043447;28;20044;-76
2023/10/19 05:57:40;;;;;;;23.63;15.15;;;11.10;99.90;;;;;;5047008;28;20053;-75
2023/10/19 06:00:08;;;;;;;21.27;14.32;;;11.10;99.90;;;;;;5047303;28;20430;-75
2023/10/19 06:02:34;;;;;;;22.05;13.52;;;11.20;99.90;;;;;;5054891;28;20466;-76
2023/10/19 06:05:00;;;;;;;20.80;13.20;;;11.00;99.90;;;;;;5043197;28;20127;-77
2023/10/19 06:07:26;;;;;;;25.85;15.00;;;11.10;99.90;;;;;;5053775;28;20111;-77
2023/10/19 06:09:52;;;;;;;23.20;15.07;;;11.20;99.90;;;;;;5041559;28;20169;-77
2023/10/19 06:12:18;;;;;;;23.65;14.55;;;11.10;99.90;;;;;;5049988;28;20132;-78
2023/10/19 06:14:44;;;;;;;21.90;14.07;;;11.20;99.90;;;;;;5050172;28;20029;-78
2023/10/19 06:17:10;;;;;;;21.88;14.43;;;11.10;99.90;;;;;;5048249;28;20601;-77
2023/10/19 06:19:35;;;;;;;22.23;15.18;;;11.20;99.90;;;;;;5040584;28;20391;-78
2023/10/19 06:22:02;;;;;;;21.15;13.77;;;11.20;99.90;;;;;;5046628;28;20466;-76
2023/10/19 06:24:28;;;;;;;21.67;14.13;;;11.20;99.90;;;;;;5049842;28;20029;-76
2023/10/19 06:26:53;;;;;;;20.67;13.30;;;11.10;99.90;;;;;;5046665;28;20032;-77
2023/10/19 06:29:19;;;;;;;21.42;14.18;;;11.20;99.90;;;;;;5042534;28;20781;-77
2023/10/19 06:31:45;;;;;;;23.98;14.60;;;11.20;99.90;;;;;;5043332;28;20155;-76
2023/10/19 06:34:11;;;;;;;22.42;14.95;;;11.30;99.90;;;;;;5048534;28;20070;-78
2023/10/19 06:36:37;;;;;;;24.75;15.00;;;11.30;99.90;;;;;;5040643;28;20037;-76
2023/10/19 06:39:05;;;;;;;20.80;14.27;;;11.30;99.90;;;;;;5048957;28;20033;-77
2023/10/19 06:41:32;;;;;;;25.00;16.02;;;11.30;99.90;;;;;;5055331;28;20016;-77
2023/10/19 06:43:58;;;;;;;23.48;15.18;;;11.40;99.90;;;;;;5046120;28;20040;-77
2023/10/19 06:46:24;;;;;;;23.00;14.93;;;11.40;99.90;;;;;;5051666;28;20399;-77
2023/10/19 06:48:51;;;;;;;22.58;14.70;;;11.30;99.90;;;;;;5046376;28;20037;-77
2023/10/19 06:51:16;;;;;;;23.33;15.88;;;11.30;99.90;;;;;;5048550;28;20039;-77
2023/10/19 06:53:42;;;;;;;27.05;16.80;;;11.40;99.90;;;;;;5043737;28;20040;-77
2023/10/19 06:56:08;;;;;;;27.88;16.05;;;11.40;99.90;;;;;;5047900;28;20027;-78
2023/10/19 06:58:34;;;;;;;29.00;15.80;;;11.50;99.90;;;;;;5051366;28;20954;-78
2023/10/19 07:01:00;;;;;;;24.80;16.23;;;11.50;99.90;;;;;;5048869;28;20024;-77
2023/10/19 07:03:28;;;;;;;24.88;16.73;;;11.50;99.90;;;;;;5045114;28;20104;-77
2023/10/19 07:05:54;;;;;;;23.73;14.68;;;11.50;99.90;;;;;;5053420;28;20029;-76
2023/10/19 07:08:21;;;;;;;25.20;15.20;;;11.40;99.90;;;;;;5044978;28;23674;-76
2023/10/19 07:10:46;;;;;;;27.45;16.85;;;11.40;99.90;;;;;;5048867;28;20073;-76
2023/10/19 07:13:12;;;;;;;23.08;15.32;;;11.40;99.90;;;;;;5050737;28;20040;-76
2023/10/19 07:15:41;;;;;;;26.55;15.55;;;11.30;99.90;;;;;;5043480;28;20127;-77
2023/10/19 07:18:07;;;;;;;25.20;15.40;;;11.30;99.90;;;;;;5049253;28;20126;-76
2023/10/19 07:20:35;;;;;;;25.27;16.90;;;11.40;99.90;;;;;;5053712;28;20203;-76
2023/10/19 07:23:09;;;;;;;24.48;15.55;;;11.40;99.90;;;;;;5045509;28;20025;-76
2023/10/19 07:25:45;;;;;;;26.50;16.67;;;11.40;99.90;;;;;;5051715;28;20110;-76
2023/10/19 07:28:12;;;;;;;24.90;15.32;;;11.40;99.90;;;;;;5049211;28;20040;-77
2023/10/19 07:30:40;;;;;;;23.10;14.88;;;11.50;99.90;;;;;;5047090;28;20064;-77
2023/10/19 07:33:06;;;;;;;26.95;16.42;;;11.50;99.90;;;;;;5044266;28;20056;-78
2023/10/19 07:35:37;;;;;;;24.08;16.15;;;11.50;99.90;;;;;;5042587;28;20032;-77
2023/10/19 07:38:04;;;;;;;21.52;14.68;;;11.50;99.90;;;;;;5043103;28;20021;-77
2023/10/19 07:40:30;;;;;;;23.40;14.32;;;11.40;99.90;;;;;;5043368;28;20033;-77
2023/10/19 07:42:56;;;;;;;23.38;14.85;;;11.40;99.90;;;;;;5049077;28;20360;-77
2023/10/19 07:45:22;;;;;;;23.65;15.68;;;11.50;99.90;;;;;;5055917;28;20024;-78
2023/10/19 07:47:48;;;;;;;22.38;15.40;;;11.50;99.90;;;;;;5049022;28;20032;-77
2023/10/19 07:50:17;;;;;;;24.40;16.92;;;11.50;99.90;;;;;;5047073;28;20033;-77
2023/10/19 07:52:43;;;;;;;27.80;16.88;;;11.50;99.90;;;;;;5050007;28;20048;-77
2023/10/19 07:55:10;;;;;;;22.70;15.70;;;11.50;99.90;;;;;;5056686;28;20101;-77
2023/10/19 07:57:36;;;;;;;25.30;17.00;;;11.50;99.90;;;;;;5051962;28;20032;-78
2023/10/19 08:00:03;;;;;;;25.08;17.25;;;11.50;99.90;;;;;;5046856;28;20033;-78
2023/10/19 08:02:30;;;;;;;29.10;15.48;;;11.50;99.90;;;;;;5040739;28;20029;-77
2023/10/19 08:04:56;;;;;;;26.73;16.38;;;11.50;99.90;;;;;;5050242;28;20082;-78
2023/10/19 08:07:22;;;;;;;23.73;15.45;;;11.50;99.90;;;;;;5045440;28;20113;-78
2023/10/19 08:09:47;;;;;;;25.60;15.15;;;11.50;99.90;;;;;;5043290;28;20032;-78
2023/10/19 08:12:13;;;;;;;20.85;13.98;;;11.50;99.90;;;;;;5048588;28;20027;-77
2023/10/19 08:14:39;;;;;;;25.02;14.35;;;11.60;99.90;;;;;;5044491;28;20062;-78
2023/10/19 08:17:05;;;;;;;21.55;13.50;;;11.60;99.90;;;;;;5047410;28;20032;-78
2023/10/19 08:19:31;;;;;;;23.65;15.38;;;11.60;99.90;;;;;;5043201;28;20501;-78
2023/10/19 08:21:57;;;;;;;21.75;14.80;;;11.70;99.90;;;;;;5040412;28;20029;-78
2023/10/19 08:24:23;;;;;;;28.88;16.92;;;11.70;99.90;;;;;;5040097;28;20029;-78
2023/10/19 08:26:50;;;;;;;25.48;16.85;;;11.70;99.90;;;;;;5046241;28;20070;-78
2023/10/19 08:29:16;;;;;;;28.17;18.15;;;11.60;99.90;;;;;;5045610;28;20081;-78
2023/10/19 08:31:44;;;;;;;28.73;18.02;;;11.60;99.90;;;;;;5042613;28;22130;-78
2023/10/19 08:34:11;;;;;;;28.63;17.67;;;11.40;99.90;;;;;;5038974;28;20445;-78
2023/10/19 08:36:39;;;;;;;26.52;17.20;;;11.50;99.90;;;;;;5046512;28;20033;-78
2023/10/19 08:39:11;;;;;;;24.50;18.13;;;11.60;99.90;;;;;;5042729;28;20039;-77
2023/10/19 08:41:39;;;;;;;28.25;17.25;;;11.60;99.90;;;;;;5044791;28;20025;-77
2023/10/19 08:44:10;;;;;;;26.65;17.50;;;11.50;99.90;;;;;;5045047;28;20039;-77
2023/10/19 08:46:43;;;;;;;26.20;16.25;;;11.60;99.90;;;;;;5043751;28;20100;-77
2023/10/19 08:49:12;;;;;;;26.52;15.82;;;11.60;99.90;;;;;;5048005;28;20119;-77
2023/10/19 08:51:38;;;;;;;27.13;16.30;;;11.60;99.90;;;;;;5039249;28;20523;-77
2023/10/19 08:54:05;;;;;;;25.02;17.02;;;11.50;99.90;;;;;;5042964;28;20045;-77
2023/10/19 08:56:33;;;;;;;26.40;17.88;;;11.60;99.90;;;;;;5051421;28;20067;-77
2023/10/19 08:59:00;;;;;;;27.90;17.17;;;11.70;99.90;;;;;;5050797;28;20025;-77
2023/10/19 09:01:28;;;;;;;27.63;16.80;;;11.70;99.90;;;;;;5040750;28;20036;-77
2023/10/19 09:03:58;;;;;;;28.80;17.58;;;11.70;99.90;;;;;;5047595;28;20041;-78
2023/10/19 09:06:23;;;;;;;31.73;19.25;;;11.70;99.90;;;;;;5046387;28;20497;-77
2023/10/19 09:08:49;;;;;;;29.13;18.45;;;11.80;99.90;;;;;;5042077;28;20036;-77
2023/10/19 09:11:15;;;;;;;30.23;20.15;;;11.90;99.90;;;;;;5044875;28;20066;-77
2023/10/19 09:13:46;;;;;;;31.05;17.80;;;12.00;99.90;;;;;;5041951;28;20052;-77
2023/10/19 09:16:14;;;;;;;28.92;19.25;;;11.90;99.90;;;;;;5041011;28;20025;-77
2023/10/19 09:18:39;;;;;;;31.85;20.05;;;11.80;99.90;;;;;;5051912;28;20048;-77
2023/10/19 09:21:07;;;;;;;23.45;16.27;;;11.70;99.90;;;;;;5042510;28;20068;-77
2023/10/19 09:23:34;;;;;;;23.05;16.13;;;11.70;99.90;;;;;;5043031;28;20942;-77
2023/10/19 09:26:05;;;;;;;25.23;18.48;;;11.60;99.90;;;;;;5043249;28;20522;-78
2023/10/19 09:28:33;;;;;;;31.10;19.40;;;11.60;99.90;;;;;;5046532;28;20025;-77
2023/10/19 09:31:00;;;;;;;32.20;19.00;;;11.60;99.90;;;;;;5046981;28;20039;-77
2023/10/19 09:33:27;;;;;;;30.15;19.88;;;11.70;99.90;;;;;;5041374;28;20048;-77
2023/10/19 09:35:53;;;;;;;25.13;17.77;;;11.80;99.90;;;;;;5046221;28;20024;-77
2023/10/19 09:38:24;;;;;;;24.70;16.92;;;11.80;99.90;;;;;;5044225;28;20021;-78
2023/10/19 09:40:51;;;;;;;28.85;17.83;;;11.80;99.90;;;;;;5037700;28;20040;-78
2023/10/19 09:43:32;;;;;;;41.13;18.00;;;11.80;99.90;;;;;;5046352;28;20035;-77
2023/10/19 09:46:03;;;;;;;26.38;16.58;;;11.90;99.90;;;;;;5046157;28;20036;-78
2023/10/19 09:48:29;;;;;;;30.40;18.27;;;11.80;99.90;;;;;;5041046;28;20494;-77
2023/10/19 09:50:58;;;;;;;27.00;18.33;;;11.80;99.90;;;;;;5044555;28;20035;-77
2023/10/19 09:53:26;;;;;;;29.10;18.80;;;11.70;99.90;;;;;;5041892;28;20131;-77
2023/10/19 09:55:56;;;;;;;26.90;18.50;;;11.70;99.90;;;;;;5043626;28;20033;-77
2023/10/19 09:58:29;;;;;;;30.52;18.30;;;11.60;99.90;;;;;;5045529;28;20842;-77
2023/10/19 10:00:57;;;;;;;29.83;18.05;;;11.60;99.90;;;;;;5043789;28;20403;-77
2023/10/19 10:03:47;;;;;;;30.50;18.83;;;11.80;99.90;;;;;;5043620;28;20021;-78
2023/10/19 10:06:26;;;;;;;27.73;18.15;;;11.90;99.90;;;;;;5041277;28;20106;-77
2023/10/19 10:08:53;;;;;;;30.05;18.20;;;12.00;99.90;;;;;;5051837;28;20485;-76
2023/10/19 10:11:27;;;;;;;31.05;20.30;;;12.00;99.90;;;;;;5048211;28;20036;-77
2023/10/19 10:13:57;;;;;;;27.67;19.38;;;12.00;99.90;;;;;;5044896;28;20056;-76
2023/10/19 10:16:26;;;;;;;27.17;18.27;;;11.80;99.90;;;;;;5045047;28;20040;-77
2023/10/19 10:18:58;;;;;;;25.98;17.90;;;11.90;99.90;;;;;;5044036;28;20052;-77
2023/10/19 10:21:25;;;;;;;32.92;20.02;;;11.80;99.90;;;;;;5044002;28;21095;-76
2023/10/19 10:23:53;;;;;;;31.85;18.92;;;11.80;99.90;;;;;;5050127;28;20025;-77
2023/10/19 10:26:26;;;;;;;37.60;19.13;;;11.80;99.90;;;;;;5057281;28;20028;-76
2023/10/19 10:29:21;;;;;;;31.13;18.90;;;11.80;99.90;;;;;;5049820;28;20025;-76
2023/10/19 10:31:48;;;;;;;28.88;19.15;;;11.80;99.90;;;;;;5044234;28;20611;-76
2023/10/19 10:34:40;;;;;;;28.15;18.83;;;11.90;99.90;;;;;;5045952;28;20498;-77
2023/10/19 10:37:08;;;;;;;27.52;19.15;;;12.00;99.90;;;;;;5051228;28;20035;-74
2023/10/19 10:39:37;;;;;;;29.83;19.23;;;11.90;99.90;;;;;;5044916;28;20120;-74
2023/10/19 10:42:05;;;;;;;33.95;21.95;;;11.80;99.90;;;;;;5052633;28;20446;-73
2023/10/19 10:44:45;;;;;;;29.13;21.00;;;11.80;99.90;;;;;;5045390;28;20603;-73
2023/10/19 10:47:11;;;;;;;26.00;17.20;;;11.90;99.90;;;;;;5048223;28;20029;-73
2023/10/19 10:49:57;;;;;;;26.50;18.92;;;11.90;99.90;;;;;;5042890;28;20037;-73
2023/10/19 10:52:31;;;;;;;33.92;20.95;;;12.00;99.90;;;;;;5050051;28;20028;-73
2023/10/19 10:55:11;;;;;;;31.30;19.25;;;12.00;99.90;;;;;;5045917;28;20500;-74
2023/10/19 10:57:38;;;;;;;32.92;20.63;;;12.10;99.90;;;;;;5052064;28;20040;-74
2023/10/19 11:00:08;;;;;;;32.83;20.40;;;12.10;99.90;;;;;;5043622;28;20063;-74
2023/10/19 11:02:35;;;;;;;28.75;18.38;;;12.10;99.90;;;;;;5047390;28;20103;-74
2023/10/19 11:05:02;;;;;;;27.08;18.70;;;12.20;99.90;;;;;;5051717;28;20032;-75
2023/10/19 11:07:28;;;;;;;59.95;34.63;;;12.20;99.90;;;;;;5048727;28;20029;-75
2023/10/19 11:09:55;;;;;;;62.83;40.88;;;12.20;99.90;;;;;;5045061;28;20028;-75
2023/10/19 11:12:20;;;;;;;37.17;23.50;;;11.90;99.90;;;;;;5050363;28;20033;-76
2023/10/19 11:15:00;;;;;;;32.67;19.50;;;11.90;99.90;;;;;;5048027;28;20033;-75
2023/10/19 11:17:30;;;;;;;31.15;19.63;;;11.80;99.90;;;;;;5044493;28;20036;-75
2023/10/19 11:19:57;;;;;;;25.35;16.13;;;11.70;99.90;;;;;;5046356;28;20087;-76
2023/10/19 11:22:26;;;;;;;27.92;18.10;;;11.60;99.90;;;;;;5044332;28;20131;-75
2023/10/19 11:24:54;;;;;;;26.73;19.25;;;11.70;99.90;;;;;;5050027;28;20027;-75
2023/10/19 11:27:26;;;;;;;35.03;21.20;;;11.80;99.90;;;;;;5046979;28;20029;-75
2023/10/19 11:30:03;;;;;;;33.17;21.70;;;12.00;99.90;;;;;;5053206;28;20095;-75
2023/10/19 11:32:38;;;;;;;26.60;18.00;;;12.00;99.90;;;;;;5053819;28;20036;-75
2023/10/19 11:35:04;;;;;;;28.15;16.83;;;12.20;99.90;;;;;;5055272;28;20048;-75
2023/10/19 11:37:29;;;;;;;26.38;17.58;;;12.00;99.90;;;;;;5048183;28;20029;-75
2023/10/19 11:39:55;;;;;;;26.77;17.25;;;12.10;99.90;;;;;;5061471;28;20028;-75
2023/10/19 11:42:21;;;;;;;25.20;18.90;;;12.00;99.90;;;;;;5047262;28;20056;-76
2023/10/19 11:44:46;;;;;;;26.42;18.83;;;12.00;99.90;;;;;;5054280;28;20024;-75
2023/10/19 11:47:13;;;;;;;35.83;21.13;;;12.10;99.90;;;;;;5051359;28;20122;-75
2023/10/19 11:49:39;;;;;;;32.10;19.80;;;12.00;99.90;;;;;;5053658;28;20021;-75
2023/10/19 11:52:07;;;;;;;34.55;18.85;;;11.90;99.90;;;;;;5056472;28;20029;-75
2023/10/19 11:54:34;;;;;;;22.13;16.17;;;12.00;99.90;;;;;;5047025;28;20506;-75
2023/10/19 11:57:00;;;;;;;25.58;14.38;;;12.00;99.90;;;;;;5042935;28;20029;-75
2023/10/19 11:59:26;;;;;;;30.55;17.95;;;11.90;99.90;;;;;;5041511;28;20541;-76
2023/10/19 12:01:52;;;;;;;27.23;18.50;;;12.00;99.90;;;;;;5041285;28;20049;-74
2023/10/19 12:04:18;;;;;;;27.63;17.75;;;12.10;99.90;;;;;;5042946;28;20036;-74
2023/10/19 12:06:45;;;;;;;28.25;20.27;;;12.00;99.90;;;;;;5042395;28;20078;-75
2023/10/19 12:09:15;;;;;;;28.83;19.42;;;11.80;99.90;;;;;;5046891;28;20029;-75
2023/10/19 12:11:46;;;;;;;116.90;30.77;;;11.80;99.90;;;;;;5047810;28;20036;-75
2023/10/19 12:14:14;;;;;;;81.05;72.60;;;11.80;99.90;;;;;;5049715;28;20037;-75
2023/10/19 12:16:40;;;;;;;32.38;21.77;;;11.90;99.90;;;;;;5040801;28;20031;-75
2023/10/19 12:19:07;;;;;;;29.15;20.17;;;11.80;99.90;;;;;;5043468;28;20033;-75
2023/10/19 12:21:33;;;;;;;34.33;23.52;;;11.90;99.90;;;;;;5052886;28;20040;-75
2023/10/19 12:24:01;;;;;;;30.80;20.23;;;11.90;99.90;;;;;;5045660;28;20367;-75
2023/10/19 12:26:27;;;;;;;31.83;21.40;;;12.00;99.90;;;;;;5045735;28;20025;-75
2023/10/19 12:28:52;;;;;;;30.58;20.55;;;12.00;99.90;;;;;;5056490;28;20035;-75
2023/10/19 12:31:18;;;;;;;33.20;19.60;;;12.00;99.90;;;;;;5050508;28;20494;-75
2023/10/19 12:33:44;;;;;;;26.75;18.23;;;11.80;99.90;;;;;;5041640;28;20053;-74
2023/10/19 12:38:49;;;;;;;30.65;19.73;;;11.80;99.90;;;;;;5041766;28;20110;-74
2023/10/19 12:41:15;;;;;;;40.47;31.35;;;11.70;99.90;;;;;;5040973;28;20033;-74
2023/10/19 12:43:41;;;;;;;32.83;23.67;;;11.80;99.90;;;;;;5042221;28;20025;-74
2023/10/19 12:46:08;;;;;;;28.55;19.70;;;11.70;99.90;;;;;;5043136;28;20093;-74
2023/10/19 12:48:35;;;;;;;28.55;20.67;;;11.70;99.90;;;;;;5049195;28;20032;-75
2023/10/19 12:51:06;;;;;;;25.48;18.50;;;11.80;99.90;;;;;;5048624;28;20024;-75
2023/10/19 12:53:32;;;;;;;28.98;18.17;;;11.80;99.90;;;;;;5042640;28;20136;-75
2023/10/19 12:55:59;;;;;;;26.13;16.30;;;11.80;99.90;;;;;;5049994;28;20115;-74
2023/10/19 12:58:27;;;;;;;39.25;26.80;;;11.80;99.90;;;;;;5044373;28;20032;-74